createdAt,value
2023-04-05T00:00:44.415Z,6.47
2023-04-05T00:03:11.844Z,6.43
2023-04-05T00:05:39.629Z,6.43
2023-04-05T00:08:13.531Z,5.78
2023-04-05T00:10:41.324Z,6.97
2023-04-05T00:13:09.061Z,6.20
2023-04-05T00:15:36.342Z,6.20
2023-04-05T00:18:04.006Z,6.30
2023-04-05T00:20:31.343Z,6.55
2023-04-05T00:22:58.565Z,6.55
2023-04-05T00:25:26.330Z,6.50
2023-04-05T00:27:53.561Z,6.78
2023-04-05T00:30:24.035Z,6.97
2023-04-05T00:32:51.531Z,6.75
2023-04-05T00:35:18.890Z,6.80
2023-04-05T00:37:46.254Z,6.63
2023-04-05T00:40:13.576Z,6.25
2023-04-05T00:42:40.999Z,6.45
2023-04-05T00:45:08.532Z,6.60
2023-04-05T00:47:36.363Z,6.82
2023-04-05T00:50:03.893Z,6.60
2023-04-05T00:52:32.372Z,6.82
2023-04-05T00:54:59.972Z,6.45
2023-04-05T00:57:30.275Z,6.38
2023-04-05T01:00:00.278Z,6.63
2023-04-05T01:02:46.084Z,6.78
2023-04-05T01:05:37.222Z,6.57
2023-04-05T01:08:20.788Z,6.30
2023-04-05T01:10:51.967Z,6.18
2023-04-05T01:13:19.227Z,6.72
2023-04-05T01:15:46.828Z,6.50
2023-04-05T01:18:14.583Z,6.40
2023-04-05T01:20:53.009Z,6.53
2023-04-05T01:23:59.732Z,6.82
2023-04-05T01:26:49.860Z,7.75
2023-04-05T01:30:04.353Z,7.45
2023-04-05T01:32:55.955Z,6.93
2023-04-05T01:35:59.345Z,6.03
2023-04-05T01:38:28.492Z,5.88
2023-04-05T01:40:56.215Z,6.80
2023-04-05T01:43:23.488Z,6.50
2023-04-05T01:45:50.736Z,6.10
2023-04-05T01:48:18.059Z,6.20
2023-04-05T01:50:45.808Z,6.55
2023-04-05T01:53:13.593Z,6.53
2023-04-05T01:55:41.153Z,6.68
2023-04-05T01:58:09.321Z,6.65
2023-04-05T02:00:36.834Z,6.30
2023-04-05T02:03:04.293Z,6.70
2023-04-05T02:05:31.554Z,6.35
2023-04-05T02:07:58.766Z,6.28
2023-04-05T02:10:25.987Z,6.72
2023-04-05T02:12:54.862Z,6.53
2023-04-05T02:15:22.100Z,6.70
2023-04-05T02:17:49.337Z,6.18
2023-04-05T02:20:16.761Z,6.70
2023-04-05T02:22:45.597Z,6.40
2023-04-05T02:25:13.655Z,6.30
2023-04-05T02:27:41.458Z,6.88
2023-04-05T02:30:09.811Z,6.60
2023-04-05T02:32:37.089Z,6.40
2023-04-05T02:35:04.744Z,6.25
2023-04-05T02:37:31.991Z,6.63
2023-04-05T02:39:59.199Z,6.32
2023-04-05T02:42:26.412Z,6.88
2023-04-05T02:44:53.872Z,6.78
2023-04-05T02:47:22.802Z,7.20
2023-04-05T02:49:57.839Z,6.55
2023-04-05T02:52:27.795Z,7.30
2023-04-05T02:54:55.061Z,7.00
2023-04-05T03:00:02.018Z,6.63
2023-04-05T03:02:31.670Z,6.63
2023-04-05T03:05:02.512Z,7.13
2023-04-05T03:07:33.417Z,7.22
2023-04-05T03:10:05.212Z,6.50
2023-04-05T03:12:33.696Z,7.18
2023-04-05T03:15:01.123Z,6.70
2023-04-05T03:17:37.513Z,6.90
2023-04-05T03:20:09.728Z,6.70
2023-04-05T03:22:38.086Z,7.15
2023-04-05T03:25:07.316Z,8.65
2023-04-05T03:27:41.708Z,7.72
2023-04-05T03:30:15.689Z,6.97
2023-04-05T03:32:53.030Z,6.70
2023-04-05T03:35:33.516Z,6.60
2023-04-05T03:38:01.275Z,6.55
2023-04-05T03:40:29.176Z,6.63
2023-04-05T03:42:56.558Z,6.82
2023-04-05T03:45:24.704Z,6.45
2023-04-05T03:47:53.633Z,6.68
2023-04-05T03:50:21.611Z,7.35
2023-04-05T03:52:48.820Z,7.20
2023-04-05T03:55:17.033Z,6.60
2023-04-05T03:57:45.868Z,7.15
2023-04-05T04:00:24.737Z,6.43
2023-04-05T04:03:12.381Z,7.38
2023-04-05T04:05:43.332Z,6.35
2023-04-05T04:08:11.536Z,6.82
2023-04-05T04:10:39.747Z,6.55
2023-04-05T04:13:19.310Z,6.60
2023-04-05T04:15:53.023Z,6.63
2023-04-05T04:18:32.424Z,7.80
2023-04-05T04:21:25.494Z,7.47
2023-04-05T04:24:04.408Z,8.27
2023-04-05T04:26:54.731Z,8.48
2023-04-05T04:29:56.734Z,8.52
2023-04-05T04:32:55.528Z,9.07
2023-04-05T04:35:40.776Z,8.40
2023-04-05T04:38:28.540Z,7.88
2023-04-05T04:41:11.603Z,7.95
2023-04-05T04:44:03.204Z,7.35
2023-04-05T04:46:42.926Z,8.18
2023-04-05T04:49:21.762Z,7.25
2023-04-05T04:51:49.178Z,6.78
2023-04-05T04:54:21.300Z,7.32
2023-04-05T04:56:48.676Z,7.40
2023-04-05T04:59:16.257Z,6.82
2023-04-05T05:01:46.084Z,6.50
2023-04-05T05:04:13.410Z,7.10
2023-04-05T05:06:42.174Z,7.82
2023-04-05T05:09:09.685Z,7.55
2023-04-05T05:11:47.753Z,6.70
2023-04-05T05:14:15.014Z,7.35
2023-04-05T05:16:42.420Z,8.40
2023-04-05T05:19:09.772Z,7.07
2023-04-05T05:21:46.408Z,8.40
2023-04-05T05:24:14.494Z,8.65
2023-04-05T05:26:42.179Z,8.20
2023-04-05T05:29:09.714Z,7.32
2023-04-05T05:31:40.496Z,7.37
2023-04-05T05:34:07.684Z,7.10
2023-04-05T05:36:37.619Z,7.30
2023-04-05T05:39:08.060Z,7.15
2023-04-05T05:41:35.601Z,7.50
2023-04-05T05:44:02.733Z,7.68
2023-04-05T05:46:30.170Z,7.72
2023-04-05T05:48:57.399Z,7.60
2023-04-05T05:51:24.623Z,7.65
2023-04-05T05:53:52.031Z,7.97
2023-04-05T05:56:19.357Z,8.05
2023-04-05T05:58:46.781Z,8.48
2023-04-05T06:01:14.521Z,8.00
2023-04-05T06:03:41.962Z,7.57
2023-04-05T06:06:11.345Z,8.02
2023-04-05T06:08:38.756Z,7.40
2023-04-05T06:11:06.233Z,7.50
2023-04-05T06:13:33.506Z,7.38
2023-04-05T06:16:01.978Z,7.30
2023-04-05T06:18:29.235Z,6.97
2023-04-05T06:20:56.527Z,7.15
2023-04-05T06:23:23.781Z,6.45
2023-04-05T06:25:51.430Z,6.30
2023-04-05T06:28:18.653Z,6.13
2023-04-05T06:30:45.864Z,6.65
2023-04-05T06:33:13.236Z,6.65
2023-04-05T06:35:40.814Z,6.90
2023-04-05T06:38:08.192Z,6.20
2023-04-05T06:40:35.444Z,6.40
2023-04-05T06:43:02.686Z,7.05
2023-04-05T06:45:32.393Z,5.95
2023-04-05T06:47:59.694Z,6.97
2023-04-05T06:50:27.041Z,7.20
2023-04-05T06:52:54.316Z,7.07
2023-04-05T06:55:22.392Z,6.88
2023-04-05T06:57:49.677Z,7.05
2023-04-05T07:00:17.610Z,6.30
2023-04-05T07:02:44.833Z,6.80
2023-04-05T07:05:12.702Z,6.20
2023-04-05T07:07:42.508Z,6.82
2023-04-05T07:10:10.662Z,6.70
2023-04-05T07:12:39.447Z,6.75
2023-04-05T07:15:07.394Z,6.53
2023-04-05T07:17:34.761Z,6.97
2023-04-05T07:20:02.286Z,6.43
2023-04-05T07:22:29.522Z,6.75
2023-04-05T07:24:56.862Z,6.80
2023-04-05T07:27:24.135Z,7.30
2023-04-05T07:29:51.424Z,6.90
2023-04-05T07:32:18.703Z,6.55
2023-04-05T07:34:46.785Z,6.45
2023-04-05T07:37:14.335Z,6.50
2023-04-05T07:39:41.551Z,6.40
2023-04-05T07:42:08.933Z,7.03
2023-04-05T07:44:36.507Z,6.53
2023-04-05T07:47:04.191Z,6.75
2023-04-05T07:49:31.538Z,6.10
2023-04-05T07:51:58.846Z,6.72
2023-04-05T07:54:26.096Z,6.70
2023-04-05T07:56:55.434Z,9.27
2023-04-05T07:59:22.858Z,7.43
2023-04-05T08:01:50.215Z,6.78
2023-04-05T08:04:18.544Z,6.55
2023-04-05T08:06:46.074Z,6.30
2023-04-05T08:09:13.328Z,6.75
2023-04-05T08:11:40.850Z,5.75
2023-04-05T08:14:08.100Z,6.75
2023-04-05T08:16:35.957Z,6.45
2023-04-05T08:19:03.296Z,6.85
2023-04-05T08:21:30.533Z,6.65
2023-04-05T08:23:58.323Z,6.25
2023-04-05T08:26:25.705Z,6.85
2023-04-05T08:28:52.994Z,6.13
2023-04-05T08:31:21.133Z,5.82
2023-04-05T08:33:48.374Z,6.43
2023-04-05T08:36:15.728Z,6.85
2023-04-05T08:38:43.015Z,6.20
2023-04-05T08:41:19.847Z,6.22
2023-04-05T08:44:03.099Z,6.95
2023-04-05T08:46:34.647Z,7.03
2023-04-05T08:49:09.085Z,6.60
2023-04-05T08:51:39.635Z,6.53
2023-04-05T08:54:07.206Z,6.90
2023-04-05T08:56:35.662Z,7.72
2023-04-05T08:59:08.318Z,6.93
2023-04-05T09:01:42.209Z,6.53
2023-04-05T09:04:24.425Z,6.15
2023-04-05T09:06:52.922Z,6.15
2023-04-05T09:09:22.852Z,6.30
2023-04-05T09:11:51.125Z,6.57
2023-04-05T09:14:19.298Z,6.35
2023-04-05T09:16:46.796Z,6.15
2023-04-05T09:19:14.832Z,6.78
2023-04-05T09:22:01.147Z,6.90
2023-04-05T09:24:35.538Z,7.00
2023-04-05T09:27:11.582Z,6.22
2023-04-05T09:29:46.612Z,7.70
2023-04-05T09:32:15.521Z,6.72
2023-04-05T09:34:43.774Z,6.38
2023-04-05T09:37:22.430Z,5.72
2023-04-05T09:39:52.091Z,6.47
2023-04-05T09:42:23.084Z,6.28
2023-04-05T09:44:57.654Z,6.95
2023-04-05T09:47:31.511Z,7.75
2023-04-05T09:50:07.081Z,6.80
2023-04-05T09:52:35.296Z,6.85
2023-04-05T09:55:07.319Z,7.40
2023-04-05T10:00:05.684Z,6.55
2023-04-05T10:02:41.937Z,6.53
2023-04-05T10:05:13.949Z,6.45
2023-04-05T10:10:16.276Z,5.97
2023-04-05T10:12:45.271Z,6.10
2023-04-05T10:15:14.425Z,6.50
2023-04-05T10:17:51.775Z,6.10
2023-04-05T10:20:23.065Z,6.05
2023-04-05T10:23:17.678Z,6.72
2023-04-05T10:25:54.233Z,5.93
2023-04-05T10:28:43.059Z,6.85
2023-04-05T10:31:36.974Z,6.90
2023-04-05T10:34:07.124Z,6.13
2023-04-05T10:36:54.833Z,6.43
2023-04-05T10:39:25.543Z,6.28
2023-04-05T10:42:07.645Z,6.40
2023-04-05T10:47:05.639Z,6.80
2023-04-05T10:49:46.665Z,6.32
2023-04-05T10:52:15.590Z,6.75
2023-04-05T10:54:44.487Z,6.93
2023-04-05T10:57:12.510Z,6.93
2023-04-05T10:59:45.533Z,6.80
2023-04-05T11:02:14.907Z,6.28
2023-04-05T11:04:43.057Z,6.13
2023-04-05T11:07:20.242Z,6.30
2023-04-05T11:10:02.583Z,6.93
2023-04-05T11:12:58.767Z,6.10
2023-04-05T11:15:27.800Z,6.63
2023-04-05T11:18:11.942Z,6.30
2023-04-05T11:21:05.647Z,6.43
2023-04-05T11:23:32.959Z,7.38
2023-04-05T11:26:07.054Z,7.55
2023-04-05T11:28:40.560Z,6.70
2023-04-05T11:31:23.000Z,6.22
2023-04-05T11:34:00.616Z,6.38
2023-04-05T11:36:38.420Z,6.82
2023-04-05T11:39:23.664Z,6.40
2023-04-05T11:42:01.427Z,6.45
2023-04-05T11:44:49.416Z,6.38
2023-04-05T11:47:23.543Z,6.45
2023-04-05T11:49:51.540Z,6.50
2023-04-05T11:52:20.849Z,6.00
2023-04-05T11:54:49.381Z,6.13
2023-04-05T11:57:21.172Z,6.10
2023-04-05T11:59:51.597Z,6.40
2023-04-05T12:02:19.069Z,6.00
2023-04-05T12:04:57.726Z,6.15
2023-04-05T12:07:29.561Z,6.10
2023-04-05T12:10:17.801Z,5.93
2023-04-05T12:12:47.682Z,6.30
2023-04-05T12:15:18.756Z,6.35
2023-04-05T12:17:47.376Z,6.38
2023-04-05T12:20:25.906Z,6.70
2023-04-05T12:22:55.803Z,6.53
2023-04-05T12:25:23.888Z,6.18
2023-04-05T12:27:51.232Z,6.72
2023-04-05T12:30:20.731Z,6.38
2023-04-05T12:32:55.504Z,6.63
2023-04-05T12:35:31.996Z,6.60
2023-04-05T12:38:01.310Z,7.00
2023-04-05T12:40:31.043Z,6.22
2023-04-05T12:43:09.295Z,6.60
2023-04-05T12:45:40.525Z,5.93
2023-04-05T12:48:10.782Z,5.85
2023-04-05T12:50:46.619Z,6.45
2023-04-05T12:53:18.474Z,6.80
2023-04-05T12:58:17.626Z,5.72
2023-04-05T13:00:45.530Z,6.60
2023-04-05T13:03:22.080Z,6.22
2023-04-05T13:05:49.620Z,5.85
2023-04-05T13:08:20.219Z,7.15
2023-04-05T13:10:49.222Z,7.20
2023-04-05T13:13:17.941Z,7.35
2023-04-05T13:15:46.157Z,7.30
2023-04-05T13:18:15.117Z,7.05
2023-04-05T13:20:42.794Z,6.90
2023-04-05T13:23:12.163Z,7.72
2023-04-05T13:25:43.523Z,7.57
2023-04-05T13:28:11.083Z,6.63
2023-04-05T13:30:38.498Z,7.10
2023-04-05T13:33:05.860Z,7.13
2023-04-05T13:35:33.534Z,7.03
2023-04-05T13:38:04.350Z,7.03
2023-04-05T13:40:32.737Z,6.95
2023-04-05T13:43:01.265Z,7.43
2023-04-05T13:45:28.632Z,7.38
2023-04-05T13:47:56.336Z,7.10
2023-04-05T13:50:24.261Z,6.68
2023-04-05T13:52:52.229Z,6.43
2023-04-05T13:55:19.636Z,6.90
2023-04-05T13:57:46.951Z,7.00
2023-04-05T14:00:14.818Z,7.25
2023-04-05T14:02:42.577Z,6.80
2023-04-05T14:05:10.315Z,6.90
2023-04-05T14:07:37.963Z,6.25
2023-04-05T14:10:06.724Z,6.68
2023-04-05T14:12:34.672Z,6.95
2023-04-05T14:15:02.014Z,6.53
2023-04-05T14:17:29.249Z,7.22
2023-04-05T14:19:56.518Z,6.22
2023-04-05T14:22:23.798Z,6.05
2023-04-05T14:24:51.056Z,6.68
2023-04-05T14:27:18.282Z,6.65
2023-04-05T14:29:45.990Z,6.07
2023-04-05T14:32:13.287Z,6.07
2023-04-05T14:34:40.601Z,6.53
2023-04-05T14:37:08.127Z,6.30
2023-04-05T14:39:38.430Z,5.90
2023-04-05T14:42:05.800Z,5.78
2023-04-05T14:44:33.061Z,7.40
2023-04-05T14:47:00.490Z,6.28
2023-04-05T14:49:27.806Z,6.78
2023-04-05T14:51:55.061Z,6.57
2023-04-05T14:54:22.483Z,7.20
2023-04-05T14:56:49.777Z,6.82
2023-04-05T14:59:17.102Z,7.13
2023-04-05T15:01:45.711Z,6.80
2023-04-05T15:04:13.316Z,6.95
2023-04-05T15:06:40.894Z,7.10
2023-04-05T15:09:08.169Z,6.70
2023-04-05T15:11:39.347Z,7.10
2023-04-05T15:14:09.751Z,7.32
2023-04-05T15:16:40.687Z,6.50
2023-04-05T15:19:07.944Z,6.90
2023-04-05T15:21:35.284Z,7.05
2023-04-05T15:24:02.614Z,7.07
2023-04-05T15:26:29.896Z,7.07
2023-04-05T15:28:57.179Z,6.57
2023-04-05T15:31:24.427Z,7.03
2023-04-05T15:33:51.711Z,8.82
2023-04-05T15:36:19.024Z,6.70
2023-04-05T15:38:47.644Z,6.80
2023-04-05T15:41:14.906Z,6.57
2023-04-05T15:43:42.226Z,6.50
2023-04-05T15:46:09.437Z,6.72
2023-04-05T15:48:36.769Z,7.03
2023-04-05T15:51:04.177Z,7.13
2023-04-05T15:53:31.444Z,7.78
2023-04-05T15:55:58.810Z,7.22
2023-04-05T15:58:26.170Z,7.13
2023-04-05T16:00:53.432Z,7.05
2023-04-05T16:03:20.896Z,7.20
2023-04-05T16:05:48.597Z,6.88
2023-04-05T16:08:16.034Z,7.07
2023-04-05T16:10:44.940Z,7.40
2023-04-05T16:13:12.901Z,7.10
2023-04-05T16:15:40.421Z,6.80
2023-04-05T16:18:09.467Z,6.25
2023-04-05T16:20:37.319Z,6.25
2023-04-05T16:23:04.652Z,6.20
2023-04-05T16:25:32.116Z,6.80
2023-04-05T16:27:59.527Z,6.50
2023-04-05T16:30:26.899Z,6.45
2023-04-05T16:32:55.743Z,6.80
2023-04-05T16:35:28.477Z,6.65
2023-04-05T16:38:01.360Z,7.10
2023-04-05T16:40:30.100Z,6.50
2023-04-05T16:43:02.070Z,6.80
2023-04-05T16:45:36.203Z,6.78
2023-04-05T16:48:08.911Z,6.78
2023-04-05T16:50:37.545Z,6.72
2023-04-05T16:53:05.037Z,6.70
2023-04-05T16:55:32.378Z,6.85
2023-04-05T16:57:59.633Z,7.00
2023-04-05T17:00:27.243Z,6.25
2023-04-05T17:02:54.676Z,7.43
2023-04-05T17:05:22.008Z,6.78
2023-04-05T17:07:49.235Z,7.03
2023-04-05T17:10:16.908Z,6.72
2023-04-05T17:12:45.708Z,7.15
2023-04-05T17:15:13.092Z,7.25
2023-04-05T17:17:41.026Z,6.97
2023-04-05T17:20:09.405Z,6.65
2023-04-05T17:22:37.419Z,6.95
2023-04-05T17:25:05.926Z,7.53
2023-04-05T17:27:33.290Z,7.63
2023-04-05T17:30:01.289Z,7.15
2023-04-05T17:32:29.278Z,7.13
2023-04-05T17:34:56.650Z,7.40
2023-04-05T17:37:24.019Z,7.78
2023-04-05T17:39:51.266Z,7.10
2023-04-05T17:42:18.889Z,8.38
2023-04-05T17:44:46.256Z,8.40
2023-04-05T17:47:13.525Z,8.10
2023-04-05T17:49:41.389Z,7.63
2023-04-05T17:52:09.559Z,8.32
2023-04-05T17:54:38.447Z,8.40
2023-04-05T17:57:06.240Z,9.30
2023-04-05T17:59:33.648Z,8.70
2023-04-05T18:02:01.030Z,9.10
2023-04-05T18:04:28.460Z,8.82
2023-04-05T18:06:56.409Z,8.18
2023-04-05T18:09:23.855Z,8.55
2023-04-05T18:11:51.364Z,9.18
2023-04-05T18:14:18.594Z,8.98
2023-04-05T18:16:45.880Z,8.85
2023-04-05T18:19:13.637Z,9.57
2023-04-05T18:21:40.892Z,8.48
2023-04-05T18:24:08.260Z,8.25
2023-04-05T18:26:36.075Z,8.18
2023-04-05T18:29:05.297Z,7.95
2023-04-05T18:31:32.806Z,8.32
2023-04-05T18:34:06.081Z,7.75
2023-04-05T18:36:33.361Z,8.20
2023-04-05T18:39:05.367Z,8.20
2023-04-05T18:41:32.764Z,8.57
2023-04-05T18:44:00.174Z,8.48
2023-04-05T18:46:27.394Z,8.10
2023-04-05T18:48:55.006Z,8.25
2023-04-05T18:51:27.309Z,8.18
2023-04-05T18:53:54.670Z,9.57
2023-04-05T18:56:22.227Z,9.43
2023-04-05T18:58:52.436Z,9.52
2023-04-05T19:01:20.237Z,10.32
2023-04-05T19:03:48.902Z,9.15
2023-04-05T19:06:16.778Z,9.13
2023-04-05T19:08:44.110Z,9.43
2023-04-05T19:11:13.718Z,9.50
2023-04-05T19:13:42.211Z,9.02
2023-04-05T19:16:09.774Z,9.07
2023-04-05T19:18:37.219Z,9.73
2023-04-05T19:21:04.746Z,11.32
2023-04-05T19:23:32.795Z,11.25
2023-04-05T19:26:00.056Z,13.35
2023-04-05T19:28:27.527Z,11.85
2023-04-05T19:30:55.111Z,12.07
2023-04-05T19:33:22.592Z,11.25
2023-04-05T19:35:50.636Z,12.30
2023-04-05T19:38:20.410Z,12.88
2023-04-05T19:40:47.788Z,11.57
2023-04-05T19:43:15.766Z,15.27
2023-04-05T19:45:43.105Z,14.32
2023-04-05T19:48:36.879Z,12.77
2023-04-05T19:51:07.091Z,11.25
2023-04-05T19:53:50.480Z,11.80
2023-04-05T19:56:20.390Z,14.35
2023-04-05T19:58:50.025Z,12.48
2023-04-05T20:01:38.458Z,10.82
2023-04-05T20:04:13.456Z,10.05
2023-04-05T20:06:55.895Z,11.68
2023-04-05T20:09:25.945Z,12.32
2023-04-05T20:12:05.691Z,11.57
2023-04-05T20:14:45.836Z,10.93
2023-04-05T20:17:15.456Z,10.05
2023-04-05T20:19:57.339Z,12.23
2023-04-05T20:22:26.305Z,12.63
2023-04-05T20:24:53.572Z,10.48
2023-04-05T20:27:20.994Z,10.80
2023-04-05T20:29:48.437Z,10.20
2023-04-05T20:32:17.784Z,10.10
2023-04-05T20:34:46.200Z,9.82
2023-04-05T20:37:13.643Z,10.30
2023-04-05T20:39:41.219Z,10.25
2023-04-05T20:42:09.939Z,9.98
2023-04-05T20:44:37.354Z,9.40
2023-04-05T20:47:04.699Z,9.80
2023-04-05T20:49:32.280Z,9.52
2023-04-05T20:51:59.781Z,10.70
2023-04-05T20:54:27.192Z,10.48
2023-04-05T20:56:54.452Z,9.10
2023-04-05T20:59:21.832Z,8.93
2023-04-05T21:01:49.355Z,9.70
2023-04-05T21:04:16.882Z,9.75
2023-04-05T21:06:44.483Z,9.75
2023-04-05T21:09:11.853Z,9.88
2023-04-05T21:11:39.191Z,9.88
2023-04-05T21:14:06.582Z,11.25
2023-04-05T21:16:36.088Z,10.35
2023-04-05T21:19:03.335Z,9.88
2023-04-05T21:21:31.326Z,10.40
2023-04-05T21:23:58.564Z,9.98
2023-04-05T21:26:25.881Z,9.32
2023-04-05T21:28:53.122Z,9.50
2023-04-05T21:31:20.520Z,9.93
2023-04-05T21:33:47.734Z,10.15
2023-04-05T21:36:15.179Z,9.73
2023-04-05T21:38:42.370Z,12.93
2023-04-05T21:41:09.653Z,11.25
2023-04-05T21:43:38.528Z,12.20
2023-04-05T21:46:06.378Z,11.93
2023-04-05T21:48:33.933Z,10.75
2023-04-05T21:51:01.380Z,10.85
2023-04-05T21:53:28.910Z,9.80
2023-04-05T21:55:56.279Z,10.15
2023-04-05T21:58:24.103Z,10.00
2023-04-05T22:00:51.441Z,9.27
2023-04-05T22:03:18.765Z,10.43
2023-04-05T22:05:46.126Z,9.57
2023-04-05T22:08:13.414Z,10.15
2023-04-05T22:10:40.701Z,8.85
2023-04-05T22:13:07.952Z,9.48
2023-04-05T22:15:35.256Z,10.32
2023-04-05T22:18:03.134Z,9.93
2023-04-05T22:20:30.418Z,10.43
2023-04-05T22:22:57.711Z,9.13
2023-04-05T22:25:26.697Z,9.43
2023-04-05T22:27:59.730Z,10.23
2023-04-05T22:30:28.974Z,9.80
2023-04-05T22:33:00.875Z,10.77
2023-04-05T22:35:28.182Z,10.85
2023-04-05T22:37:55.689Z,10.73
2023-04-05T22:40:27.049Z,11.80
2023-04-05T22:42:54.948Z,9.35
2023-04-05T22:45:22.615Z,10.80
2023-04-05T22:47:49.925Z,10.05
2023-04-05T22:50:17.682Z,9.20
2023-04-05T22:52:45.726Z,10.23
2023-04-05T22:55:13.402Z,10.40
2023-04-05T22:57:40.700Z,9.70
2023-04-05T23:00:08.652Z,9.40
2023-04-05T23:02:36.030Z,9.25
2023-04-05T23:05:03.659Z,8.65
2023-04-05T23:07:31.196Z,9.02
2023-04-05T23:09:58.484Z,9.20
2023-04-05T23:12:25.819Z,8.80
2023-04-05T23:14:53.117Z,8.98
2023-04-05T23:17:20.559Z,8.88
2023-04-05T23:19:47.800Z,8.90
2023-04-05T23:22:15.201Z,8.68
2023-04-05T23:24:42.544Z,8.75
2023-04-05T23:27:09.819Z,8.32
2023-04-05T23:29:37.133Z,8.20
2023-04-05T23:32:05.802Z,8.40
2023-04-05T23:34:33.105Z,8.38
2023-04-05T23:37:00.401Z,8.65
2023-04-05T23:39:27.612Z,7.80
2023-04-05T23:41:54.858Z,8.00
2023-04-05T23:44:22.062Z,7.88
2023-04-05T23:46:49.326Z,9.00
2023-04-05T23:49:16.628Z,8.63
2023-04-05T23:51:43.998Z,8.63
2023-04-05T23:54:11.393Z,8.55
2023-04-05T23:56:38.856Z,8.60
2023-04-05T23:59:06.329Z,9.30
